createdAt,value
2022-08-05T00:02:21.881Z,47.16
2022-08-05T00:04:55.129Z,47.36
2022-08-05T00:07:59.402Z,47.19
2022-08-05T00:10:10.666Z,46.82
2022-08-05T00:12:56.781Z,47.93
2022-08-05T00:15:56.264Z,50.84
2022-08-05T00:18:15.029Z,52.71
2022-08-05T00:20:49.755Z,53.88
2022-08-05T00:23:16.422Z,54.39
2022-08-05T00:25:46.163Z,54.83
2022-08-05T00:28:13.622Z,55.66
2022-08-05T00:30:41.191Z,55.89
2022-08-05T00:33:15.684Z,55.95
2022-08-05T00:36:16.415Z,55.91
2022-08-05T00:38:44.294Z,56.07
2022-08-05T00:41:11.795Z,55.63
2022-08-05T00:43:47.283Z,55.50
2022-08-05T00:46:16.545Z,55.92
2022-08-05T00:48:50.660Z,55.49
2022-08-05T00:51:51.935Z,55.76
2022-08-05T00:54:06.262Z,55.44
2022-08-05T00:56:32.826Z,55.19
2022-08-05T00:59:00.351Z,55.23
2022-08-05T01:01:42.729Z,54.83
2022-08-05T01:04:14.092Z,54.37
2022-08-05T01:06:43.850Z,52.54
2022-08-05T01:09:20.107Z,51.82
2022-08-05T01:11:49.638Z,49.66
2022-08-05T01:14:37.415Z,49.33
2022-08-05T01:17:10.719Z,50.63
2022-08-05T01:20:01.204Z,51.23
2022-08-05T01:22:57.475Z,51.94
2022-08-05T01:25:24.102Z,52.11
2022-08-05T01:28:20.442Z,52.82
2022-08-05T01:30:53.780Z,53.33
2022-08-05T01:33:25.173Z,53.89
2022-08-05T01:35:55.536Z,54.52
2022-08-05T01:38:29.225Z,54.17
2022-08-05T01:41:07.001Z,54.83
2022-08-05T01:43:34.035Z,55.01
2022-08-05T01:46:07.559Z,55.38
2022-08-05T01:48:49.825Z,55.09
2022-08-05T01:51:18.416Z,55.84
2022-08-05T01:53:57.887Z,56.31
2022-08-05T01:58:10.383Z,56.82
2022-08-05T01:59:17.840Z,57.66
2022-08-05T02:01:49.078Z,58.03
2022-08-05T02:04:18.263Z,57.82
2022-08-05T02:06:45.214Z,58.27
2022-08-05T02:09:12.074Z,58.45
2022-08-05T02:11:57.036Z,59.03
2022-08-05T02:14:32.388Z,59.73
2022-08-05T02:17:26.234Z,59.80
2022-08-05T02:20:03.160Z,60.25
2022-08-05T02:22:35.303Z,60.29
2022-08-05T02:25:19.578Z,60.58
2022-08-05T02:27:58.190Z,61.40
2022-08-05T02:30:30.824Z,62.49
2022-08-05T02:32:59.783Z,63.55
2022-08-05T02:35:37.429Z,64.17
2022-08-05T02:38:06.169Z,65.23
2022-08-05T02:40:37.479Z,67.71
2022-08-05T02:43:07.276Z,75.16
2022-08-05T02:45:52.951Z,81.06
2022-08-05T02:48:29.582Z,85.84
2022-08-05T02:51:00.147Z,91.93
2022-08-05T02:53:27.068Z,98.10
2022-08-05T02:55:59.926Z,96.90
2022-08-05T02:58:30.345Z,100.00
2022-08-05T03:01:00.208Z,100.00
2022-08-05T03:03:33.767Z,100.00
2022-08-05T03:06:55.283Z,99.50
2022-08-05T03:09:04.535Z,99.17
2022-08-05T03:11:54.980Z,100.00
2022-08-05T03:14:18.072Z,100.00
2022-08-05T03:16:45.816Z,100.00
2022-08-05T03:19:29.434Z,100.00
2022-08-05T03:21:59.597Z,100.00
2022-08-05T03:24:30.475Z,100.00
2022-08-05T03:27:00.032Z,100.00
2022-08-05T03:29:45.535Z,100.00
2022-08-05T03:32:15.557Z,100.00
2022-08-05T03:34:50.778Z,100.00
2022-08-05T03:37:18.988Z,100.00
2022-08-05T03:40:01.242Z,100.00
2022-08-05T03:42:32.478Z,100.00
2022-08-05T03:44:59.818Z,100.00
2022-08-05T03:47:30.284Z,100.00
2022-08-05T03:49:57.562Z,100.00
2022-08-05T03:52:48.367Z,100.00
2022-08-05T03:56:00.856Z,100.00
2022-08-05T03:58:17.943Z,100.00
2022-08-05T04:00:46.494Z,100.00
2022-08-05T04:03:28.207Z,100.00
2022-08-05T04:05:58.031Z,100.00
2022-08-05T04:08:34.736Z,100.00
2022-08-05T04:11:05.191Z,100.00
2022-08-05T04:13:50.059Z,100.00
2022-08-05T04:16:25.152Z,100.00
2022-08-05T04:18:57.947Z,100.00
2022-08-05T04:22:10.119Z,100.00
2022-08-05T04:24:19.310Z,100.00
2022-08-05T04:26:49.703Z,100.00
2022-08-05T04:29:16.705Z,100.00
2022-08-05T04:31:43.248Z,100.00
2022-08-05T04:34:31.473Z,100.00
2022-08-05T04:36:56.529Z,100.00
2022-08-05T04:39:23.227Z,100.00
2022-08-05T04:41:51.349Z,100.00
2022-08-05T04:44:21.247Z,100.00
2022-08-05T04:46:50.977Z,100.00
2022-08-05T04:49:19.442Z,100.00
2022-08-05T04:52:05.026Z,100.00
2022-08-05T04:54:34.422Z,100.00
2022-08-05T04:57:01.328Z,100.00
2022-08-05T04:59:38.450Z,100.00
2022-08-05T05:02:41.330Z,100.00
2022-08-05T05:04:52.921Z,100.00
2022-08-05T05:07:29.754Z,100.00
2022-08-05T05:10:02.318Z,100.00
2022-08-05T05:12:29.656Z,100.00
2022-08-05T05:14:56.481Z,100.00
2022-08-05T05:17:55.822Z,100.00
2022-08-05T05:20:12.118Z,100.00
2022-08-05T05:22:40.861Z,100.00
2022-08-05T05:25:16.995Z,100.00
2022-08-05T05:27:45.888Z,100.00
2022-08-05T05:30:29.275Z,100.00
2022-08-05T05:33:00.878Z,100.00
2022-08-05T05:35:37.977Z,100.00
2022-08-05T05:38:08.965Z,100.00
2022-08-05T05:40:43.774Z,100.00
2022-08-05T05:43:16.387Z,100.00
2022-08-05T05:45:54.753Z,100.00
2022-08-05T05:48:27.631Z,100.00
2022-08-05T05:50:54.710Z,100.00
2022-08-05T05:53:22.754Z,100.00
2022-08-05T05:55:52.310Z,100.00
2022-08-05T05:58:31.881Z,100.00
2022-08-05T06:01:02.480Z,100.00
2022-08-05T06:04:00.352Z,100.00
2022-08-05T06:06:28.120Z,100.00
2022-08-05T06:08:58.665Z,100.00
2022-08-05T06:11:26.096Z,100.00
2022-08-05T06:13:55.551Z,98.85
2022-08-05T06:16:28.359Z,96.57
2022-08-05T06:19:00.818Z,96.34
2022-08-05T06:21:37.105Z,94.99
2022-08-05T06:24:11.279Z,92.83
2022-08-05T06:26:39.576Z,92.20
2022-08-05T06:29:23.571Z,92.85
2022-08-05T06:32:05.752Z,93.87
2022-08-05T06:34:48.203Z,93.87
2022-08-05T06:37:56.014Z,92.26
2022-08-05T06:40:07.530Z,86.44
2022-08-05T06:42:34.115Z,87.57
2022-08-05T06:45:00.791Z,87.01
2022-08-05T06:48:36.023Z,88.17
2022-08-05T06:50:19.089Z,91.48
2022-08-05T06:52:58.455Z,90.95
2022-08-05T06:55:25.778Z,91.05
2022-08-05T06:58:02.824Z,91.87
2022-08-05T07:00:41.207Z,93.78
2022-08-05T07:03:09.823Z,95.85
2022-08-05T07:05:37.174Z,97.10
2022-08-05T07:08:04.845Z,97.78
2022-08-05T07:10:32.743Z,97.95
2022-08-05T07:13:17.825Z,97.74
2022-08-05T07:17:55.962Z,97.89
2022-08-05T07:19:09.957Z,98.07
2022-08-05T07:22:01.099Z,95.81
2022-08-05T07:24:23.772Z,93.57
2022-08-05T07:26:55.453Z,89.05
2022-08-05T07:30:22.144Z,85.75
2022-08-05T07:32:08.873Z,81.58
2022-08-05T07:34:39.231Z,78.98
2022-08-05T07:37:09.187Z,78.77
2022-08-05T07:40:26.527Z,79.76
2022-08-05T07:42:31.779Z,79.77
2022-08-05T07:45:00.962Z,80.55
2022-08-05T07:47:27.726Z,81.04
2022-08-05T07:50:09.674Z,81.71
2022-08-05T07:52:40.830Z,82.79
2022-08-05T07:55:44.509Z,82.28
2022-08-05T07:58:02.476Z,80.36
2022-08-05T08:00:29.929Z,80.68
2022-08-05T08:03:14.730Z,80.95
2022-08-05T08:05:49.461Z,82.87
2022-08-05T08:08:17.044Z,82.92
2022-08-05T08:10:48.720Z,82.25
2022-08-05T08:13:15.837Z,82.18
2022-08-05T08:16:42.996Z,82.65
2022-08-05T08:18:35.806Z,81.31
2022-08-05T08:21:09.855Z,79.15
2022-08-05T08:24:02.841Z,76.42
2022-08-05T08:26:30.772Z,75.46
2022-08-05T08:29:21.586Z,74.26
2022-08-05T08:31:45.568Z,72.91
2022-08-05T08:40:42.048Z,76.77
2022-08-05T08:45:17.182Z,75.17
2022-08-05T08:46:06.663Z,75.40
2022-08-05T08:49:01.014Z,72.15
2022-08-05T08:52:04.360Z,70.54
2022-08-05T08:54:18.263Z,69.18
2022-08-05T08:56:47.435Z,69.33
2022-08-05T08:59:21.025Z,67.56
2022-08-05T09:01:57.650Z,69.70
2022-08-05T09:04:30.513Z,69.35
2022-08-05T09:06:57.827Z,67.25
2022-08-05T09:09:26.011Z,66.45
2022-08-05T09:12:19.868Z,66.82
2022-08-05T09:14:58.424Z,66.46
2022-08-05T09:17:40.622Z,65.33
2022-08-05T09:20:09.587Z,66.11
2022-08-05T09:23:19.709Z,64.31
2022-08-05T09:26:03.413Z,65.39
2022-08-05T09:28:34.594Z,66.53
2022-08-05T09:31:22.199Z,67.62
2022-08-05T09:34:03.694Z,68.17
2022-08-05T09:36:55.614Z,68.58
2022-08-05T09:39:39.262Z,68.08
2022-08-05T09:42:23.219Z,66.97
2022-08-05T09:44:56.401Z,66.76
2022-08-05T09:47:34.953Z,63.92
2022-08-05T09:50:13.100Z,63.62
2022-08-05T09:52:45.301Z,62.90
2022-08-05T09:55:58.343Z,61.11
2022-08-05T09:58:00.169Z,61.32
2022-08-05T10:00:29.713Z,60.28
2022-08-05T10:02:58.474Z,60.63
2022-08-05T10:05:27.883Z,59.72
2022-08-05T10:08:11.171Z,59.09
2022-08-05T10:10:53.933Z,58.98
2022-08-05T10:13:54.566Z,60.28
2022-08-05T10:16:29.564Z,60.06
2022-08-05T10:18:57.144Z,59.81
2022-08-05T10:21:24.226Z,60.86
2022-08-05T10:23:59.846Z,60.57
2022-08-05T10:26:32.286Z,59.87
2022-08-05T10:29:00.674Z,60.52
2022-08-05T10:32:52.971Z,60.28
2022-08-05T10:34:13.861Z,56.63
2022-08-05T10:36:41.833Z,56.97
2022-08-05T10:39:25.276Z,56.46
2022-08-05T10:42:18.786Z,55.99
2022-08-05T10:44:59.298Z,57.02
2022-08-05T10:47:36.543Z,56.82
2022-08-05T10:50:32.455Z,56.39
2022-08-05T10:53:01.107Z,56.09
2022-08-05T10:55:30.565Z,55.34
2022-08-05T10:58:11.404Z,57.00
2022-08-05T11:00:42.214Z,55.60
2022-08-05T11:03:23.545Z,54.86
2022-08-05T11:06:14.693Z,54.17
2022-08-05T11:09:13.228Z,53.02
2022-08-05T11:11:53.344Z,54.28
2022-08-05T11:14:57.759Z,54.24
2022-08-05T11:17:58.916Z,55.27
2022-08-05T11:20:34.431Z,54.83
2022-08-05T11:24:04.075Z,55.41
2022-08-05T11:26:43.528Z,57.13
2022-08-05T11:29:37.659Z,56.63
2022-08-05T11:32:24.460Z,56.61
2022-08-05T11:34:54.459Z,57.31
2022-08-05T11:38:29.410Z,57.27
2022-08-05T11:41:03.378Z,58.53
2022-08-05T11:44:08.295Z,57.23
2022-08-05T11:46:58.297Z,56.46
2022-08-05T11:49:25.703Z,54.90
2022-08-05T11:51:53.484Z,53.90
2022-08-05T11:54:33.989Z,52.74
2022-08-05T11:57:07.587Z,52.35
2022-08-05T11:59:50.169Z,53.41
2022-08-05T12:02:30.081Z,52.69
2022-08-05T12:04:59.379Z,52.39
2022-08-05T12:08:08.221Z,52.91
2022-08-05T12:10:19.683Z,52.66
2022-08-05T12:12:46.659Z,52.14
2022-08-05T12:15:38.600Z,51.63
2022-08-05T12:18:11.073Z,50.62
2022-08-05T12:20:38.995Z,51.74
2022-08-05T12:23:12.365Z,52.16
2022-08-05T12:25:56.909Z,52.66
2022-08-05T12:28:37.039Z,54.30
2022-08-05T12:31:05.776Z,55.09
2022-08-05T12:33:36.643Z,55.73
2022-08-05T12:36:08.544Z,55.13
2022-08-05T12:38:38.272Z,54.55
2022-08-05T12:41:13.287Z,54.68
2022-08-05T12:43:51.700Z,54.67
2022-08-05T12:46:28.989Z,53.98
2022-08-05T12:49:13.402Z,53.46
2022-08-05T12:52:14.263Z,52.31
2022-08-05T12:54:40.941Z,53.05
2022-08-05T12:57:10.553Z,52.65
2022-08-05T13:01:58.168Z,52.31
2022-08-05T13:02:41.419Z,51.26
2022-08-05T13:05:12.532Z,51.96
2022-08-05T13:08:00.264Z,51.75
2022-08-05T13:10:28.627Z,52.50
2022-08-05T13:12:58.142Z,52.27
2022-08-05T13:15:41.259Z,52.08
2022-08-05T13:18:19.636Z,52.03
2022-08-05T13:20:48.942Z,50.56
2022-08-05T13:23:22.014Z,51.87
2022-08-05T13:25:52.327Z,52.52
2022-08-05T13:28:27.107Z,52.42
2022-08-05T13:30:53.838Z,52.94
2022-08-05T13:34:24.308Z,52.77
2022-08-05T13:36:09.216Z,52.25
2022-08-05T13:38:38.433Z,53.45
2022-08-05T13:41:10.772Z,53.71
2022-08-05T13:43:44.131Z,53.44
2022-08-05T13:46:14.070Z,54.85
2022-08-05T13:48:57.576Z,56.82
2022-08-05T13:51:36.449Z,57.10
2022-08-05T13:54:11.761Z,60.73
2022-08-05T13:56:45.028Z,62.85
2022-08-05T13:59:24.741Z,64.53
2022-08-05T14:02:00.258Z,67.53
2022-08-05T14:04:49.529Z,71.19
2022-08-05T14:07:56.309Z,75.02
2022-08-05T14:10:09.654Z,78.85
2022-08-05T14:12:36.785Z,77.55
2022-08-05T14:16:05.345Z,76.13
2022-08-05T14:17:51.278Z,75.32
2022-08-05T14:20:21.764Z,73.66
2022-08-05T14:22:54.372Z,75.05
2022-08-05T14:25:22.529Z,73.72
2022-08-05T14:27:54.528Z,71.11
2022-08-05T14:30:21.429Z,69.95
2022-08-05T14:32:48.897Z,68.13
2022-08-05T14:35:16.243Z,66.01
2022-08-05T14:37:52.201Z,63.25
2022-08-05T14:40:24.423Z,63.63
2022-08-05T14:42:51.417Z,61.79
2022-08-05T14:45:18.794Z,60.04
2022-08-05T14:48:05.454Z,58.92
2022-08-05T14:50:32.311Z,59.67
2022-08-05T14:52:59.609Z,61.62
2022-08-05T14:55:28.756Z,60.82
2022-08-05T14:58:11.334Z,62.05
2022-08-05T15:00:59.172Z,63.07
2022-08-05T15:03:33.939Z,61.34
2022-08-05T15:06:08.031Z,61.04
2022-08-05T15:08:59.145Z,61.57
2022-08-05T15:11:51.388Z,60.91
2022-08-05T15:14:33.323Z,60.49
2022-08-05T15:17:01.445Z,61.11
2022-08-05T15:19:30.885Z,61.82
2022-08-05T15:22:00.260Z,62.25
2022-08-05T15:24:27.972Z,62.57
2022-08-05T15:26:55.806Z,62.25
2022-08-05T15:29:22.961Z,63.38
2022-08-05T15:31:53.008Z,63.65
2022-08-05T15:34:33.133Z,62.66
2022-08-05T15:37:06.478Z,62.98
2022-08-05T15:41:00.430Z,63.55
2022-08-05T15:42:49.943Z,64.14
2022-08-05T15:45:14.886Z,63.30
2022-08-05T15:47:43.980Z,63.77
2022-08-05T15:50:15.167Z,64.10
2022-08-05T15:52:52.599Z,64.34
2022-08-05T15:55:25.080Z,64.77
2022-08-05T15:58:07.309Z,64.50
2022-08-05T16:00:50.614Z,64.49
2022-08-05T16:03:20.429Z,62.79
2022-08-05T16:05:50.777Z,62.88
2022-08-05T16:08:19.290Z,63.51
2022-08-05T16:10:45.807Z,63.11
2022-08-05T16:13:12.703Z,60.76
2022-08-05T16:15:51.854Z,60.63
2022-08-05T16:18:18.895Z,61.50
2022-08-05T16:20:46.410Z,61.60
2022-08-05T16:23:12.985Z,61.15
2022-08-05T16:25:40.047Z,61.30
2022-08-05T16:28:10.434Z,61.00
2022-08-05T16:30:37.690Z,60.52
2022-08-05T16:33:04.400Z,60.91
2022-08-05T16:35:32.453Z,61.06
2022-08-05T16:38:03.236Z,61.31
2022-08-05T16:40:52.298Z,61.43
2022-08-05T16:43:23.897Z,61.79
2022-08-05T16:46:03.701Z,61.73
2022-08-05T16:48:35.739Z,60.97
2022-08-05T16:51:03.777Z,60.69
2022-08-05T16:54:02.409Z,60.75
2022-08-05T16:56:23.834Z,59.85
2022-08-05T16:58:50.719Z,59.23
2022-08-05T17:01:18.879Z,59.16
2022-08-05T17:03:45.843Z,58.77
2022-08-05T17:06:12.769Z,59.04
2022-08-05T17:08:53.178Z,58.34
2022-08-05T17:11:23.910Z,57.91
2022-08-05T17:14:00.587Z,58.27
2022-08-05T17:16:37.710Z,58.00
2022-08-05T17:19:07.737Z,58.02
2022-08-05T17:21:37.437Z,58.76
2022-08-05T17:24:28.461Z,59.76
2022-08-05T17:26:56.535Z,58.17
2022-08-05T17:29:33.888Z,57.59
2022-08-05T17:32:11.445Z,57.39
2022-08-05T17:34:43.696Z,58.29
2022-08-05T17:37:41.005Z,57.74
2022-08-05T17:39:59.844Z,58.19
2022-08-05T17:42:31.950Z,58.12
2022-08-05T17:45:09.847Z,58.81
2022-08-05T17:47:47.053Z,59.45
2022-08-05T17:50:27.793Z,59.43
2022-08-05T17:52:55.809Z,59.84
2022-08-05T17:55:34.517Z,59.06
2022-08-05T17:58:06.972Z,60.72
2022-08-05T18:00:36.156Z,59.87
2022-08-05T18:03:06.514Z,60.32
2022-08-05T18:05:35.463Z,60.67
2022-08-05T18:08:02.819Z,60.87
2022-08-05T18:10:32.090Z,60.73
2022-08-05T18:13:00.528Z,61.00
2022-08-05T18:15:31.101Z,60.29
2022-08-05T18:18:05.576Z,59.91
2022-08-05T18:20:38.018Z,60.24
2022-08-05T18:23:09.197Z,60.12
2022-08-05T18:25:39.130Z,59.18
2022-08-05T18:28:06.813Z,58.07
2022-08-05T18:30:34.336Z,57.07
2022-08-05T18:33:01.625Z,56.83
2022-08-05T18:36:01.104Z,56.80
2022-08-05T18:38:19.422Z,56.10
2022-08-05T18:41:56.291Z,56.47
2022-08-05T18:43:43.101Z,54.79
2022-08-05T18:46:15.193Z,54.46
2022-08-05T18:48:42.140Z,54.65
2022-08-05T18:52:04.015Z,53.65
2022-08-05T18:54:15.206Z,53.33
2022-08-05T18:56:41.788Z,53.08
2022-08-05T18:59:43.707Z,53.65
2022-08-05T19:02:04.987Z,53.02
2022-08-05T19:05:01.476Z,53.65
2022-08-05T19:07:45.935Z,55.68
2022-08-05T19:10:16.771Z,54.98
2022-08-05T19:12:43.799Z,54.45
2022-08-05T19:15:57.935Z,54.94
2022-08-05T19:18:10.219Z,55.18
2022-08-05T19:20:41.352Z,55.63
2022-08-05T19:24:06.210Z,55.07
2022-08-05T19:26:02.070Z,55.37
2022-08-05T19:28:29.788Z,55.32
2022-08-05T19:30:56.316Z,55.31
2022-08-05T19:33:35.788Z,55.65
2022-08-05T19:36:06.902Z,56.16
2022-08-05T19:38:35.706Z,56.50
2022-08-05T19:41:07.136Z,56.73
2022-08-05T19:44:06.133Z,56.89
2022-08-05T19:46:29.962Z,57.13
2022-08-05T19:49:00.827Z,57.90
2022-08-05T19:52:05.821Z,58.45
2022-08-05T19:54:21.999Z,59.23
2022-08-05T19:56:55.220Z,58.37
2022-08-05T19:59:54.711Z,58.68
2022-08-05T20:02:08.544Z,58.60
2022-08-05T20:04:35.163Z,58.05
2022-08-05T20:07:02.448Z,59.18
2022-08-05T20:09:29.194Z,59.19
2022-08-05T20:12:15.680Z,57.45
2022-08-05T20:14:42.309Z,57.89
2022-08-05T20:17:10.000Z,56.31
2022-08-05T20:19:42.754Z,56.41
2022-08-05T20:22:09.539Z,56.47
2022-08-05T20:24:36.765Z,57.12
2022-08-05T20:27:11.377Z,55.69
2022-08-05T20:29:38.411Z,54.90
2022-08-05T20:32:06.571Z,55.83
2022-08-05T20:34:33.243Z,54.65
2022-08-05T20:37:00.788Z,54.56
2022-08-05T20:39:36.459Z,54.79
2022-08-05T20:42:04.271Z,55.62
2022-08-05T20:44:32.813Z,54.61
2022-08-05T20:47:06.718Z,54.55
2022-08-05T20:49:39.672Z,54.62
2022-08-05T20:52:07.521Z,54.42
2022-08-05T20:54:43.557Z,55.39
2022-08-05T20:57:42.610Z,55.02
2022-08-05T21:00:20.054Z,54.84
2022-08-05T21:03:07.555Z,54.87
2022-08-05T21:05:48.392Z,54.91
2022-08-05T21:08:32.875Z,55.39
2022-08-05T21:11:10.331Z,55.70
2022-08-05T21:13:48.088Z,56.29
2022-08-05T21:16:30.082Z,56.99
2022-08-05T21:19:01.058Z,57.35
2022-08-05T21:21:44.262Z,56.71
2022-08-05T21:24:16.305Z,56.87
2022-08-05T21:26:53.364Z,57.16
2022-08-05T21:29:31.381Z,57.31
2022-08-05T21:31:58.861Z,57.62
2022-08-05T21:34:25.413Z,57.91
2022-08-05T21:36:54.829Z,58.21
2022-08-05T21:39:26.521Z,58.53
2022-08-05T21:42:01.228Z,58.62
2022-08-05T21:44:28.459Z,58.81
2022-08-05T21:46:57.931Z,58.76
2022-08-05T21:49:58.459Z,59.18
2022-08-05T21:52:23.031Z,59.48
2022-08-05T21:54:55.384Z,59.18
2022-08-05T21:57:31.384Z,59.86
2022-08-05T22:00:11.093Z,59.89
2022-08-05T22:02:38.392Z,60.42
2022-08-05T22:05:05.423Z,60.47
2022-08-05T22:07:40.125Z,59.92
2022-08-05T22:10:27.173Z,59.42
2022-08-05T22:12:57.359Z,60.24
2022-08-05T22:16:04.734Z,60.63
2022-08-05T22:18:11.265Z,61.29
2022-08-05T22:20:39.754Z,60.66
2022-08-05T22:24:02.764Z,60.54
2022-08-05T22:26:49.979Z,60.73
2022-08-05T22:29:18.703Z,60.37
2022-08-05T22:31:59.133Z,60.50
2022-08-05T22:34:28.677Z,60.60
2022-08-05T22:36:56.899Z,60.33
2022-08-05T22:39:29.797Z,60.12
2022-08-05T22:42:09.264Z,60.84
2022-08-05T22:44:38.419Z,61.20
2022-08-05T22:47:05.956Z,61.11
2022-08-05T22:50:20.557Z,61.53
2022-08-05T22:52:32.414Z,61.01
2022-08-05T22:55:01.388Z,61.02
2022-08-05T22:57:34.262Z,61.28
2022-08-05T23:00:08.117Z,61.24
2022-08-05T23:02:39.991Z,60.94
2022-08-05T23:05:15.160Z,61.36
2022-08-05T23:07:43.839Z,60.37
2022-08-05T23:10:14.865Z,59.45
2022-08-05T23:12:43.742Z,58.93
2022-08-05T23:15:10.880Z,58.44
2022-08-05T23:18:01.700Z,58.15
2022-08-05T23:20:25.379Z,58.32
2022-08-05T23:22:54.150Z,57.31
2022-08-05T23:25:52.100Z,57.58
2022-08-05T23:28:10.116Z,57.07
2022-08-05T23:30:39.660Z,57.44
2022-08-05T23:33:22.118Z,56.90
2022-08-05T23:35:55.946Z,57.28
2022-08-05T23:38:24.141Z,57.15
2022-08-05T23:40:52.654Z,57.42
2022-08-05T23:43:25.320Z,57.73
2022-08-05T23:46:20.037Z,57.62
2022-08-05T23:49:00.999Z,56.98
2022-08-05T23:51:53.428Z,56.66
2022-08-05T23:54:33.787Z,56.42
2022-08-05T23:57:04.765Z,55.26
